Terminal Aerodrome Forecast
Issued by NWS Cleveland, OH

Home | Current Version | Previous Version | Graphics & Text | Print | Product List | Glossary On
Versions: 1 2 3 4 5 6 7 8 9 10 11 12 13 14 15
978
FTUS41 KCLE 160112 AAA
TAFMFD
TAF AMD
KMFD 160112Z 1601/1624 29010G20KT P6SM SCT017 BKN030
      TEMPO 1601/1604 SCT030
     FM160400 32009KT P6SM SCT017 BKN030
     FM160700 31008KT P6SM SCT017 BKN040
     FM161100 30007KT P6SM SCT045=

USA.gov is the U.S. government's official web portal to all federal, state and local government web resources and services.